createdAt,value
2018-04-13T00:00:43.332Z,32.97
2018-04-13T00:01:46.662Z,35.20
2018-04-13T00:02:50.025Z,34.30
2018-04-13T00:03:53.392Z,35.10
2018-04-13T00:04:56.723Z,30.53
2018-04-13T00:06:00.128Z,31.93
2018-04-13T00:07:03.864Z,32.50
2018-04-13T00:08:07.230Z,30.03
2018-04-13T00:09:10.663Z,30.97
2018-04-13T00:10:13.996Z,31.40
2018-04-13T00:11:17.334Z,30.10
2018-04-13T00:12:20.725Z,33.50
2018-04-13T00:13:24.197Z,31.70
2018-04-13T00:14:28.321Z,30.83
2018-04-13T00:15:31.685Z,33.20
2018-04-13T00:16:35.759Z,32.20
2018-04-13T00:17:39.096Z,33.20
2018-04-13T00:18:42.463Z,33.17
2018-04-13T00:19:45.846Z,31.40
2018-04-13T00:20:49.221Z,33.80
2018-04-13T00:21:52.717Z,35.07
2018-04-13T00:22:56.134Z,34.60
2018-04-13T00:23:59.496Z,39.30
2018-04-13T00:25:02.896Z,35.30
2018-04-13T00:26:06.301Z,38.60
2018-04-13T00:27:09.640Z,37.43
2018-04-13T00:28:13.021Z,34.00
2018-04-13T00:29:17.159Z,35.53
2018-04-13T00:30:20.510Z,34.00
2018-04-13T00:31:24.650Z,36.43
2018-04-13T00:32:28.722Z,36.03
2018-04-13T00:33:32.890Z,31.70
2018-04-13T00:34:37.068Z,33.57
2018-04-13T00:35:40.451Z,32.57
2018-04-13T00:36:43.776Z,34.50
2018-04-13T00:37:47.133Z,36.13
2018-04-13T00:38:50.520Z,33.67
2018-04-13T00:39:53.919Z,36.90
2018-04-13T00:40:57.227Z,35.63
2018-04-13T00:42:00.552Z,35.17
2018-04-13T00:43:03.948Z,33.70
2018-04-13T00:44:07.309Z,35.67
2018-04-13T00:45:10.639Z,33.07
2018-04-13T00:46:14.014Z,31.50
2018-04-13T00:47:17.875Z,32.10
2018-04-13T00:48:21.470Z,35.67
2018-04-13T00:49:25.604Z,33.17
2018-04-13T00:50:28.950Z,34.90
2018-04-13T00:51:33.060Z,34.97
2018-04-13T00:52:37.160Z,34.30
2018-04-13T00:53:41.242Z,34.17
2018-04-13T00:54:44.580Z,33.83
2018-04-13T00:55:48.266Z,35.03
2018-04-13T00:56:51.569Z,34.30
2018-04-13T00:57:54.905Z,34.43
2018-04-13T00:58:58.974Z,33.70
2018-04-13T01:00:02.287Z,33.87
2018-04-13T01:01:06.416Z,32.80
2018-04-13T01:02:09.750Z,32.60
2018-04-13T01:03:13.891Z,32.80
2018-04-13T01:04:17.197Z,35.47
2018-04-13T01:05:20.505Z,34.90
2018-04-13T01:06:24.631Z,34.40
2018-04-13T01:07:28.067Z,35.77
2018-04-13T01:08:32.099Z,34.90
2018-04-13T01:09:35.390Z,33.00
2018-04-13T01:10:38.707Z,34.10
2018-04-13T01:11:42.045Z,31.90
2018-04-13T01:12:45.362Z,33.07
2018-04-13T01:13:48.690Z,32.23
2018-04-13T01:14:52.013Z,31.50
2018-04-13T01:15:56.141Z,32.03
2018-04-13T01:16:59.489Z,32.50
2018-04-13T01:18:02.826Z,32.57
2018-04-13T01:19:06.894Z,32.60
2018-04-13T01:20:10.178Z,32.13
2018-04-13T01:21:13.570Z,34.13
2018-04-13T01:22:16.949Z,33.70
2018-04-13T01:23:20.318Z,31.67
2018-04-13T01:24:23.663Z,30.90
2018-04-13T01:25:26.983Z,29.70
2018-04-13T01:26:30.295Z,29.20
2018-04-13T01:27:34.467Z,29.70
2018-04-13T01:28:37.777Z,28.87
2018-04-13T01:29:41.136Z,28.10
2018-04-13T01:30:44.445Z,26.60
2018-04-13T01:31:47.798Z,26.73
2018-04-13T01:32:51.144Z,26.83
2018-04-13T01:33:55.229Z,26.57
2018-04-13T01:34:58.546Z,27.30
2018-04-13T01:36:01.871Z,27.60
2018-04-13T01:37:05.172Z,27.10
2018-04-13T01:38:08.549Z,25.90
2018-04-13T01:39:11.921Z,24.00
2018-04-13T01:40:15.228Z,24.13
2018-04-13T01:41:18.547Z,23.90
2018-04-13T01:42:21.895Z,23.13
2018-04-13T01:43:25.279Z,23.57
2018-04-13T01:44:28.642Z,22.77
2018-04-13T01:45:31.934Z,24.17
2018-04-13T01:46:35.231Z,23.07
2018-04-13T01:47:38.566Z,21.47
2018-04-13T01:48:41.880Z,23.93
2018-04-13T01:49:45.183Z,21.43
2018-04-13T01:50:48.564Z,22.63
2018-04-13T01:51:51.866Z,20.67
2018-04-13T01:52:55.190Z,21.17
2018-04-13T01:53:58.752Z,23.57
2018-04-13T01:55:02.082Z,23.40
2018-04-13T01:56:05.425Z,22.33
2018-04-13T01:57:08.748Z,22.37
2018-04-13T01:58:12.092Z,22.20
2018-04-13T01:59:15.424Z,22.80
2018-04-13T02:00:18.735Z,22.60
2018-04-13T02:01:22.110Z,23.57
2018-04-13T02:02:25.406Z,23.47
2018-04-13T02:03:28.704Z,22.33
2018-04-13T02:04:32.051Z,24.17
2018-04-13T02:05:35.394Z,23.90
2018-04-13T02:06:40.192Z,22.73
2018-04-13T02:07:43.535Z,23.00
2018-04-13T02:08:46.880Z,23.53
2018-04-13T02:09:51.028Z,23.77
2018-04-13T02:10:54.479Z,21.70
2018-04-13T02:11:58.581Z,23.90
2018-04-13T02:13:02.648Z,22.50
2018-04-13T02:14:05.969Z,20.43
2018-04-13T02:15:09.327Z,22.27
2018-04-13T02:16:12.688Z,23.40
2018-04-13T02:17:16.089Z,23.50
2018-04-13T02:18:19.434Z,22.27
2018-04-13T02:19:22.802Z,22.03
2018-04-13T02:20:26.126Z,22.20
2018-04-13T02:21:29.431Z,21.80
2018-04-13T02:22:32.736Z,22.47
2018-04-13T02:23:36.811Z,22.77
2018-04-13T02:24:40.110Z,23.10
2018-04-13T02:25:43.459Z,21.30
2018-04-13T02:26:47.306Z,22.53
2018-04-13T02:27:50.640Z,23.17
2018-04-13T02:28:54.250Z,23.77
2018-04-13T02:29:57.570Z,20.33
2018-04-13T02:31:01.926Z,20.90
2018-04-13T02:32:05.238Z,21.43
2018-04-13T02:33:09.371Z,21.30
2018-04-13T02:34:13.497Z,23.23
2018-04-13T02:35:17.096Z,23.27
2018-04-13T02:36:20.466Z,22.87
2018-04-13T02:37:24.561Z,23.50
2018-04-13T02:38:28.644Z,21.73
2018-04-13T02:39:32.717Z,23.60
2018-04-13T02:40:36.829Z,25.03
2018-04-13T02:41:40.147Z,23.13
2018-04-13T02:42:44.287Z,23.50
2018-04-13T02:43:47.648Z,22.17
2018-04-13T02:44:51.061Z,23.07
2018-04-13T02:45:54.409Z,21.90
2018-04-13T02:46:58.085Z,20.30
2018-04-13T02:48:01.488Z,20.80
2018-04-13T02:49:04.846Z,21.87
2018-04-13T02:50:08.162Z,22.83
2018-04-13T02:51:12.264Z,21.77
2018-04-13T02:52:15.630Z,21.23
2018-04-13T02:53:19.873Z,21.80
2018-04-13T02:54:23.192Z,21.70
2018-04-13T02:55:26.519Z,22.70
2018-04-13T02:56:30.224Z,20.80
2018-04-13T02:57:33.602Z,20.53
2018-04-13T02:58:36.906Z,21.20
2018-04-13T02:59:40.272Z,21.00
2018-04-13T03:00:43.584Z,22.13
2018-04-13T03:01:46.902Z,21.73
2018-04-13T03:02:50.246Z,19.70
2018-04-13T03:03:53.543Z,19.37
2018-04-13T03:06:07.229Z,20.73
2018-04-13T03:07:11.307Z,21.10
2018-04-13T03:08:14.629Z,22.03
2018-04-13T03:09:17.993Z,23.30
2018-04-13T03:10:21.359Z,23.00
2018-04-13T03:11:24.692Z,24.00
2018-04-13T03:12:28.754Z,24.83
2018-04-13T03:13:32.157Z,23.80
2018-04-13T03:14:35.508Z,21.90
2018-04-13T03:15:39.618Z,22.90
2018-04-13T03:16:42.981Z,23.37
2018-04-13T03:17:46.314Z,24.00
2018-04-13T03:18:49.761Z,24.60
2018-04-13T03:19:53.046Z,21.90
2018-04-13T03:20:57.125Z,23.80
2018-04-13T03:22:00.438Z,24.97
2018-04-13T03:23:03.746Z,23.60
2018-04-13T03:24:07.965Z,23.00
2018-04-13T03:25:11.326Z,23.83
2018-04-13T03:26:14.679Z,24.07
2018-04-13T03:27:18.024Z,23.77
2018-04-13T03:28:21.469Z,22.57
2018-04-13T03:29:24.904Z,24.13
2018-04-13T03:30:28.288Z,23.70
2018-04-13T03:31:32.376Z,26.83
2018-04-13T03:32:35.705Z,24.80
2018-04-13T03:33:39.039Z,25.40
2018-04-13T03:34:42.408Z,24.10
2018-04-13T03:35:45.710Z,24.60
2018-04-13T03:36:49.049Z,24.27
2018-04-13T03:37:52.413Z,25.97
2018-04-13T03:38:56.472Z,26.10
2018-04-13T03:39:59.826Z,24.67
2018-04-13T03:41:03.132Z,25.20
2018-04-13T03:42:06.426Z,26.60
2018-04-13T03:43:09.717Z,25.60
2018-04-13T03:44:13.024Z,25.83
2018-04-13T03:45:16.460Z,25.80
2018-04-13T03:46:19.773Z,24.93
2018-04-13T03:47:23.132Z,25.87
2018-04-13T03:48:27.201Z,25.57
2018-04-13T03:49:30.532Z,26.40
2018-04-13T03:50:34.041Z,26.20
2018-04-13T03:51:38.221Z,25.60
2018-04-13T03:52:41.569Z,25.07
2018-04-13T03:53:44.895Z,25.30
2018-04-13T03:54:48.976Z,26.40
2018-04-13T03:55:53.210Z,24.57
2018-04-13T03:56:56.591Z,24.93
2018-04-13T03:57:59.957Z,25.60
2018-04-13T03:59:03.243Z,26.27
2018-04-13T04:00:06.661Z,26.47
2018-04-13T04:01:10.006Z,26.57
2018-04-13T04:02:13.358Z,26.77
2018-04-13T04:03:16.633Z,26.90
2018-04-13T04:04:20.014Z,25.20
2018-04-13T04:05:23.377Z,27.27
2018-04-13T04:06:26.780Z,25.37
2018-04-13T04:07:30.078Z,26.27
2018-04-13T04:08:33.465Z,25.03
2018-04-13T04:09:37.553Z,25.27
2018-04-13T04:10:41.532Z,28.63
2018-04-13T04:11:44.906Z,26.27
2018-04-13T04:12:48.240Z,22.70
2018-04-13T04:13:51.602Z,25.40
2018-04-13T04:14:54.965Z,22.83
2018-04-13T04:15:58.350Z,24.07
2018-04-13T04:17:01.742Z,23.80
2018-04-13T04:18:05.050Z,24.33
2018-04-13T04:19:08.370Z,24.73
2018-04-13T04:20:29.310Z,25.80
2018-04-13T04:21:50.219Z,22.00
2018-04-13T04:23:11.079Z,23.47
2018-04-13T04:24:31.914Z,23.57
2018-04-13T04:27:18.554Z,21.57
2018-04-13T04:28:21.926Z,23.80
2018-04-13T04:29:25.257Z,23.67
2018-04-13T04:30:28.622Z,21.60
2018-04-13T04:32:42.631Z,23.53
2018-04-13T04:33:46.003Z,25.50
2018-04-13T04:34:49.297Z,23.50
2018-04-13T04:35:52.617Z,23.43
2018-04-13T04:36:55.926Z,23.57
2018-04-13T04:37:59.251Z,26.87
2018-04-13T04:39:02.601Z,25.33
2018-04-13T04:40:05.949Z,24.90
2018-04-13T04:41:09.290Z,23.87
2018-04-13T04:42:12.900Z,24.57
2018-04-13T04:43:16.226Z,23.60
2018-04-13T04:44:19.605Z,23.57
2018-04-13T04:45:22.921Z,25.23
2018-04-13T04:46:26.891Z,23.73
2018-04-13T04:47:30.227Z,24.90
2018-04-13T04:48:33.532Z,25.70
2018-04-13T04:49:36.884Z,26.10
2018-04-13T04:50:40.212Z,23.10
2018-04-13T04:51:43.709Z,25.27
2018-04-13T04:52:47.781Z,24.43
2018-04-13T04:53:51.137Z,24.47
2018-04-13T04:54:54.461Z,26.17
2018-04-13T04:55:58.337Z,24.17
2018-04-13T04:57:01.696Z,25.40
2018-04-13T04:58:05.011Z,24.20
2018-04-13T04:59:08.346Z,25.60
2018-04-13T05:00:11.758Z,25.23
2018-04-13T05:01:15.366Z,26.30
2018-04-13T05:02:19.473Z,27.70
2018-04-13T05:03:22.853Z,26.27
2018-04-13T05:04:26.204Z,27.53
2018-04-13T05:05:30.620Z,28.27
2018-04-13T05:06:34.233Z,27.87
2018-04-13T05:07:37.545Z,25.07
2018-04-13T05:08:41.644Z,29.10
2018-04-13T05:09:45.775Z,26.53
2018-04-13T05:10:49.111Z,27.57
2018-04-13T05:11:54.770Z,29.17
2018-04-13T05:12:58.998Z,27.47
2018-04-13T05:14:02.311Z,28.47
2018-04-13T05:15:07.884Z,28.50
2018-04-13T05:16:12.115Z,26.13
2018-04-13T05:17:16.253Z,29.33
2018-04-13T05:18:19.644Z,28.93
2018-04-13T05:19:23.040Z,27.30
2018-04-13T05:20:26.461Z,26.60
2018-04-13T05:21:30.591Z,27.47
2018-04-13T05:22:34.042Z,27.67
2018-04-13T05:23:37.519Z,28.23
2018-04-13T05:24:41.093Z,27.27
2018-04-13T05:25:44.414Z,28.20
2018-04-13T05:26:47.799Z,28.27
2018-04-13T05:27:51.234Z,30.47
2018-04-13T05:28:54.593Z,28.87
2018-04-13T05:29:58.772Z,28.33
2018-04-13T05:31:02.183Z,29.63
2018-04-13T05:32:06.336Z,31.80
2018-04-13T05:33:09.721Z,30.50
2018-04-13T05:34:13.186Z,30.67
2018-04-13T05:36:31.503Z,32.77
2018-04-13T05:37:36.045Z,29.60
2018-04-13T05:38:39.408Z,31.97
2018-04-13T05:39:42.748Z,31.37
2018-04-13T05:40:46.069Z,30.53
2018-04-13T05:41:49.410Z,30.13
2018-04-13T05:42:52.781Z,30.87
2018-04-13T05:43:56.135Z,33.20
2018-04-13T05:44:59.441Z,32.37
2018-04-13T05:46:02.876Z,35.40
2018-04-13T05:47:06.327Z,31.53
2018-04-13T05:48:09.817Z,32.80
2018-04-13T05:49:13.158Z,34.80
2018-04-13T05:50:16.617Z,34.50
2018-04-13T05:51:20.895Z,34.83
2018-04-13T05:52:24.284Z,36.07
2018-04-13T05:53:27.674Z,35.00
2018-04-13T05:54:32.655Z,40.43
2018-04-13T05:55:36.331Z,38.20
2018-04-13T05:56:39.726Z,33.47
2018-04-13T05:57:43.185Z,37.93
2018-04-13T05:58:46.576Z,38.87
2018-04-13T05:59:49.925Z,38.87
2018-04-13T06:00:54.041Z,38.97
2018-04-13T06:01:57.342Z,39.40
2018-04-13T06:03:00.681Z,40.90
2018-04-13T06:04:04.012Z,42.87
2018-04-13T06:05:08.113Z,39.67
2018-04-13T06:06:11.418Z,42.07
2018-04-13T06:07:14.785Z,40.70
2018-04-13T06:08:18.111Z,39.60
2018-04-13T06:09:21.480Z,40.67
2018-04-13T06:10:25.564Z,41.97
2018-04-13T06:11:28.971Z,40.90
2018-04-13T06:12:32.314Z,43.50
2018-04-13T06:13:35.648Z,42.93
2018-04-13T06:14:39.048Z,40.27
2018-04-13T06:15:42.384Z,44.47
2018-04-13T06:16:46.070Z,42.07
2018-04-13T06:17:49.400Z,39.30
2018-04-13T06:18:53.593Z,46.20
2018-04-13T06:19:57.061Z,41.87
2018-04-13T06:21:00.355Z,43.23
2018-04-13T06:22:03.880Z,43.97
2018-04-13T06:23:07.210Z,40.63
2018-04-13T06:24:10.539Z,42.50
2018-04-13T06:25:14.658Z,42.10
2018-04-13T06:26:18.038Z,43.80
2018-04-13T06:27:21.357Z,43.70
2018-04-13T06:28:24.679Z,45.93
2018-04-13T06:29:27.990Z,43.90
2018-04-13T06:30:31.365Z,45.63
2018-04-13T06:31:34.694Z,46.70
2018-04-13T06:32:38.023Z,44.57
2018-04-13T06:33:41.378Z,46.50
2018-04-13T06:34:44.707Z,43.43
2018-04-13T06:35:48.434Z,46.37
2018-04-13T06:36:55.044Z,44.60
2018-04-13T06:37:55.094Z,46.50
2018-04-13T06:38:58.525Z,45.00
2018-04-13T06:40:01.879Z,45.20
2018-04-13T06:41:06.178Z,47.50
2018-04-13T06:42:09.592Z,44.10
2018-04-13T06:43:12.956Z,44.10
2018-04-13T06:44:16.273Z,45.83
2018-04-13T06:45:19.599Z,47.17
2018-04-13T06:46:22.961Z,48.07
2018-04-13T06:47:26.330Z,47.93
2018-04-13T06:48:29.619Z,45.20
2018-04-13T06:49:32.988Z,46.00
2018-04-13T06:50:36.388Z,47.47
2018-04-13T06:51:39.844Z,47.50
2018-04-13T06:52:43.216Z,47.60
2018-04-13T06:53:46.516Z,44.03
2018-04-13T06:54:49.829Z,46.67
2018-04-13T06:55:53.182Z,48.00
2018-04-13T06:56:56.593Z,46.73
2018-04-13T06:57:59.930Z,47.07
2018-04-13T06:59:03.245Z,47.20
2018-04-13T07:00:06.644Z,47.77
2018-04-13T07:01:09.965Z,50.77
2018-04-13T07:02:13.306Z,47.43
2018-04-13T07:03:17.339Z,47.67
2018-04-13T07:04:20.680Z,47.47
2018-04-13T07:05:24.872Z,43.80
2018-04-13T07:06:29.029Z,47.17
2018-04-13T07:07:32.371Z,45.30
2018-04-13T07:08:35.766Z,45.20
2018-04-13T07:09:39.939Z,47.83
2018-04-13T07:10:43.388Z,47.90
2018-04-13T07:11:46.798Z,44.97
2018-04-13T07:12:50.539Z,49.27
2018-04-13T07:13:53.895Z,49.17
2018-04-13T07:14:57.273Z,51.17
2018-04-13T07:16:01.357Z,47.90
2018-04-13T07:17:04.695Z,46.90
2018-04-13T07:18:08.056Z,47.90
2018-04-13T07:19:11.418Z,46.60
2018-04-13T07:20:14.792Z,47.97
2018-04-13T07:21:18.104Z,48.30
2018-04-13T07:22:22.164Z,51.90
2018-04-13T07:23:25.556Z,47.63
2018-04-13T07:24:28.903Z,46.07
2018-04-13T07:25:32.254Z,51.80
2018-04-13T07:26:36.345Z,50.03
2018-04-13T07:27:39.659Z,48.03
2018-04-13T07:28:43.141Z,50.20
2018-04-13T07:29:46.462Z,49.43
2018-04-13T07:30:50.527Z,50.43
2018-04-13T07:31:53.964Z,50.87
2018-04-13T07:32:57.292Z,49.30
2018-04-13T07:34:01.378Z,50.33
2018-04-13T07:35:04.722Z,51.40
2018-04-13T07:36:08.099Z,49.93
2018-04-13T07:37:12.001Z,50.70
2018-04-13T07:38:15.362Z,53.00
2018-04-13T07:39:18.740Z,50.27
2018-04-13T07:40:22.822Z,49.50
2018-04-13T07:42:25.208Z,49.10
2018-04-13T07:43:28.501Z,50.17
2018-04-13T07:44:31.956Z,50.40
2018-04-13T07:45:35.298Z,49.93
2018-04-13T07:46:38.657Z,51.50
2018-04-13T07:47:41.994Z,49.33
2018-04-13T07:48:45.308Z,51.50
2018-04-13T07:49:48.650Z,49.00
2018-04-13T07:50:52.011Z,53.50
2018-04-13T07:51:55.516Z,49.63
2018-04-13T07:52:58.674Z,50.93
2018-04-13T07:54:02.007Z,50.57
2018-04-13T07:55:05.323Z,54.00
2018-04-13T07:56:09.397Z,50.87
2018-04-13T07:57:12.707Z,50.57
2018-04-13T07:58:16.017Z,52.07
2018-04-13T07:59:19.343Z,50.67
2018-04-13T08:00:22.677Z,51.20
2018-04-13T08:01:25.984Z,50.20
2018-04-13T08:02:29.306Z,50.37
2018-04-13T08:03:32.632Z,51.87
2018-04-13T08:04:36.142Z,50.13
2018-04-13T08:05:39.502Z,52.03
2018-04-13T08:06:42.863Z,51.83
2018-04-13T08:07:46.967Z,50.60
2018-04-13T08:08:50.325Z,49.20
2018-04-13T08:09:53.653Z,53.50
2018-04-13T08:10:57.765Z,49.00
2018-04-13T08:12:01.826Z,54.00
2018-04-13T08:13:05.151Z,53.73
2018-04-13T08:14:08.463Z,48.43
2018-04-13T08:15:11.811Z,51.27
2018-04-13T08:16:15.227Z,50.00
2018-04-13T08:17:18.707Z,52.10
2018-04-13T08:18:22.518Z,54.57
2018-04-13T08:19:26.067Z,55.27
2018-04-13T08:20:30.897Z,51.70
2018-04-13T08:21:34.213Z,52.47
2018-04-13T08:22:38.421Z,50.37
2018-04-13T08:23:41.790Z,52.60
2018-04-13T08:24:45.096Z,51.90
2018-04-13T08:25:48.905Z,50.57
2018-04-13T08:26:52.240Z,50.10
2018-04-13T08:27:55.551Z,51.80
2018-04-13T08:28:58.871Z,51.20
2018-04-13T08:30:02.197Z,50.00
2018-04-13T08:31:05.505Z,50.43
2018-04-13T08:32:08.838Z,53.00
2018-04-13T08:33:12.180Z,49.80
2018-04-13T08:34:15.508Z,50.60
2018-04-13T08:35:19.609Z,50.60
2018-04-13T08:36:22.953Z,53.07
2018-04-13T08:37:26.308Z,53.20
2018-04-13T08:38:29.614Z,48.97
2018-04-13T08:39:32.918Z,49.87
2018-04-13T08:40:36.297Z,54.03
2018-04-13T08:41:39.640Z,53.20
2018-04-13T08:42:42.975Z,52.20
2018-04-13T08:43:46.266Z,51.13
2018-04-13T08:44:49.581Z,51.43
2018-04-13T08:45:53.658Z,49.83
2018-04-13T08:46:56.971Z,52.53
2018-04-13T08:48:00.320Z,51.10
2018-04-13T08:49:03.791Z,49.73
2018-04-13T08:50:07.070Z,48.67
2018-04-13T08:51:10.372Z,48.33
2018-04-13T08:52:13.678Z,50.17
2018-04-13T08:53:17.000Z,48.17
2018-04-13T08:54:20.327Z,49.43
2018-04-13T08:55:23.675Z,49.80
2018-04-13T08:56:26.959Z,48.60
2018-04-13T08:57:30.278Z,50.33
2018-04-13T08:58:33.622Z,50.20
2018-04-13T08:59:36.932Z,48.30
2018-04-13T09:00:40.299Z,50.40
2018-04-13T09:01:43.598Z,51.03
2018-04-13T09:02:46.911Z,51.33
2018-04-13T09:03:50.283Z,47.50
2018-04-13T09:04:53.605Z,51.30
2018-04-13T09:05:57.730Z,51.33
2018-04-13T09:07:01.086Z,49.03
2018-04-13T09:08:04.416Z,51.90
2018-04-13T09:09:07.772Z,48.63
2018-04-13T09:10:11.084Z,46.30
2018-04-13T09:11:14.387Z,50.03
2018-04-13T09:12:17.731Z,48.43
2018-04-13T09:13:21.904Z,48.97
2018-04-13T09:14:25.260Z,44.77
2018-04-13T09:15:29.458Z,42.87
2018-04-13T09:16:33.513Z,42.20
2018-04-13T09:17:36.846Z,44.00
2018-04-13T09:18:40.152Z,41.50
2018-04-13T09:19:43.469Z,38.40
2018-04-13T09:20:47.598Z,37.77
2018-04-13T09:21:50.892Z,36.77
2018-04-13T09:22:54.954Z,37.70
2018-04-13T09:23:59.033Z,33.70
2018-04-13T09:25:02.404Z,33.37
2018-04-13T09:26:05.718Z,31.67
2018-04-13T09:27:09.835Z,29.70
2018-04-13T09:28:13.940Z,28.73
2018-04-13T09:29:18.016Z,30.80
2018-04-13T09:30:22.514Z,30.20
2018-04-13T09:31:25.918Z,25.90
2018-04-13T09:32:29.258Z,25.50
2018-04-13T09:33:32.668Z,27.40
2018-04-13T09:34:35.995Z,24.63
2018-04-13T09:35:39.623Z,27.13
2018-04-13T09:36:43.138Z,27.60
2018-04-13T09:37:46.494Z,26.00
2018-04-13T09:38:49.820Z,27.17
2018-04-13T09:39:53.153Z,27.10
2018-04-13T09:40:56.496Z,26.53
2018-04-13T09:42:00.566Z,24.67
2018-04-13T09:43:03.886Z,23.80
2018-04-13T09:44:07.221Z,24.47
2018-04-13T09:45:10.512Z,22.10
2018-04-13T09:46:13.887Z,23.67
2018-04-13T09:47:17.199Z,20.30
2018-04-13T09:48:20.513Z,18.90
2018-04-13T09:49:23.877Z,19.80
2018-04-13T09:50:27.294Z,17.60
2018-04-13T09:51:30.796Z,19.50
2018-04-13T09:52:34.117Z,18.33
2018-04-13T09:53:37.426Z,18.50
2018-04-13T09:54:40.765Z,17.40
2018-04-13T09:55:44.091Z,17.50
2018-04-13T09:56:47.471Z,17.00
2018-04-13T09:57:50.768Z,16.73
2018-04-13T09:58:54.099Z,16.57
2018-04-13T09:59:57.429Z,16.10
2018-04-13T10:01:00.745Z,16.40
2018-04-13T10:02:04.117Z,19.33
2018-04-13T10:03:12.956Z,19.10
2018-04-13T10:04:16.271Z,17.80
2018-04-13T10:05:19.652Z,17.40
2018-04-13T10:06:22.970Z,18.77
2018-04-13T10:07:26.454Z,18.17
2018-04-13T10:08:29.765Z,17.23
2018-04-13T10:09:33.836Z,18.47
2018-04-13T10:10:37.281Z,20.80
2018-04-13T10:11:40.647Z,17.17
2018-04-13T10:12:44.798Z,18.83
2018-04-13T10:13:48.103Z,16.73
2018-04-13T10:14:52.093Z,18.63
2018-04-13T10:15:55.408Z,18.53
2018-04-13T10:16:58.728Z,18.70
2018-04-13T10:18:02.079Z,19.90
2018-04-13T10:19:05.396Z,20.03
2018-04-13T10:20:08.814Z,19.60
2018-04-13T10:21:12.128Z,20.70
2018-04-13T10:22:15.466Z,19.90
2018-04-13T10:23:18.873Z,20.97
2018-04-13T10:24:22.497Z,18.50
2018-04-13T10:25:26.010Z,18.20
2018-04-13T10:26:29.536Z,18.40
2018-04-13T10:27:33.148Z,17.87
2018-04-13T10:28:37.172Z,16.87
2018-04-13T10:29:40.557Z,16.90
2018-04-13T10:30:43.885Z,19.40
2018-04-13T10:31:47.208Z,18.87
2018-04-13T10:32:50.537Z,19.07
2018-04-13T10:33:53.838Z,19.23
2018-04-13T10:34:57.179Z,17.97
2018-04-13T10:36:01.259Z,17.10
2018-04-13T10:38:06.908Z,19.07
2018-04-13T10:39:10.238Z,17.83
2018-04-13T10:40:13.577Z,17.40
2018-04-13T10:41:16.964Z,17.10
2018-04-13T10:42:20.631Z,17.30
2018-04-13T10:43:23.994Z,18.63
2018-04-13T10:44:27.336Z,18.03
2018-04-13T10:45:30.869Z,17.37
2018-04-13T10:46:34.291Z,15.17
2018-04-13T10:47:37.644Z,18.33
2018-04-13T10:48:41.243Z,17.00
2018-04-13T10:49:44.616Z,16.03
2018-04-13T10:50:48.004Z,15.60
2018-04-13T10:51:52.137Z,17.43
2018-04-13T10:52:55.483Z,17.10
2018-04-13T10:53:58.936Z,16.50
2018-04-13T10:55:02.413Z,16.63
2018-04-13T10:56:05.738Z,16.33
2018-04-13T10:57:09.102Z,17.40
2018-04-13T10:58:12.540Z,16.60
2018-04-13T10:59:15.936Z,16.70
2018-04-13T11:00:19.286Z,14.00
2018-04-13T11:01:22.633Z,16.30
2018-04-13T11:02:25.927Z,18.70
2018-04-13T11:03:29.304Z,18.73
2018-04-13T11:04:32.710Z,16.70
2018-04-13T11:05:36.833Z,16.27
2018-04-13T11:06:40.154Z,16.40
2018-04-13T11:07:43.481Z,14.90
2018-04-13T11:08:46.882Z,15.90
2018-04-13T11:09:50.249Z,16.63
2018-04-13T11:10:54.543Z,14.83
2018-04-13T11:11:57.835Z,14.90
2018-04-13T11:13:01.148Z,14.90
2018-04-13T11:14:04.458Z,14.83
2018-04-13T11:15:07.823Z,14.03
2018-04-13T11:16:11.176Z,14.07
2018-04-13T11:17:14.492Z,14.50
2018-04-13T11:18:17.794Z,13.30
2018-04-13T11:19:21.180Z,14.47
2018-04-13T11:20:24.569Z,13.27
2018-04-13T11:21:27.926Z,14.40
2018-04-13T11:22:31.242Z,13.00
2018-04-13T11:23:34.541Z,12.77
2018-04-13T11:24:37.878Z,11.87
2018-04-13T11:25:41.210Z,11.90
2018-04-13T11:26:44.561Z,12.60
2018-04-13T11:27:47.906Z,12.17
2018-04-13T11:28:51.221Z,11.97
2018-04-13T11:29:54.543Z,11.37
2018-04-13T11:30:57.929Z,10.83
2018-04-13T11:32:01.263Z,9.17
2018-04-13T11:33:05.353Z,9.67
2018-04-13T11:34:08.654Z,8.67
2018-04-13T11:35:11.960Z,8.97
2018-04-13T11:36:15.269Z,10.70
2018-04-13T11:38:37.385Z,9.47
2018-04-13T11:39:40.728Z,9.53
2018-04-13T11:40:45.101Z,9.27
2018-04-13T11:41:48.531Z,9.40
2018-04-13T11:42:51.899Z,8.90
2018-04-13T11:43:55.276Z,8.70
2018-04-13T11:44:58.582Z,7.77
2018-04-13T11:46:02.693Z,9.73
2018-04-13T11:47:06.778Z,8.83
2018-04-13T11:48:10.855Z,9.40
2018-04-13T11:50:27.260Z,8.53
2018-04-13T11:51:30.577Z,8.17
2018-04-13T11:52:33.900Z,8.17
2018-04-13T11:53:37.211Z,10.10
2018-04-13T11:54:40.550Z,8.80
2018-04-13T11:55:43.883Z,9.77
2018-04-13T11:56:47.203Z,9.93
2018-04-13T11:57:50.519Z,9.10
2018-04-13T11:58:53.859Z,8.53
2018-04-13T11:59:57.165Z,8.70
2018-04-13T12:01:00.512Z,9.20
2018-04-13T12:02:04.641Z,8.20
2018-04-13T12:03:09.507Z,7.70
2018-04-13T12:04:12.811Z,8.87
2018-04-13T12:05:16.136Z,9.13
2018-04-13T12:06:20.240Z,8.40
2018-04-13T12:07:23.539Z,8.07
2018-04-13T12:08:26.871Z,9.73
2018-04-13T12:09:30.217Z,8.73
2018-04-13T12:10:33.586Z,9.10
2018-04-13T12:11:36.944Z,8.60
2018-04-13T12:12:40.272Z,8.93
2018-04-13T12:13:43.764Z,8.37
2018-04-13T12:14:47.108Z,8.23
2018-04-13T12:15:51.243Z,8.27
2018-04-13T12:16:54.603Z,8.30
2018-04-13T12:17:57.933Z,7.67
2018-04-13T12:19:01.995Z,8.47
2018-04-13T12:20:06.080Z,9.40
2018-04-13T12:21:09.543Z,7.90
2018-04-13T12:22:12.909Z,8.50
2018-04-13T12:23:16.219Z,8.43
2018-04-13T12:24:19.665Z,9.10
2018-04-13T12:26:41.898Z,8.40
2018-04-13T12:27:45.236Z,7.13
2018-04-13T12:28:48.687Z,8.13
2018-04-13T12:29:52.004Z,7.67
2018-04-13T12:30:55.332Z,7.97
2018-04-13T12:31:58.749Z,7.37
2018-04-13T12:33:02.117Z,7.53
2018-04-13T12:34:05.512Z,8.30
2018-04-13T12:35:08.903Z,8.40
2018-04-13T12:36:12.219Z,7.73
2018-04-13T12:37:16.387Z,8.40
2018-04-13T12:38:20.244Z,7.60
2018-04-13T12:39:23.563Z,8.43
2018-04-13T12:40:26.859Z,7.00
2018-04-13T12:41:30.166Z,7.23
2018-04-13T12:42:33.514Z,7.80
2018-04-13T12:43:36.924Z,7.10
2018-04-13T12:44:40.265Z,6.93
2018-04-13T12:45:44.372Z,6.70
2018-04-13T12:46:47.773Z,6.57
2018-04-13T12:47:51.084Z,6.60
2018-04-13T12:48:54.497Z,5.77
2018-04-13T12:49:58.008Z,6.43
2018-04-13T12:51:01.333Z,5.17
2018-04-13T12:52:04.662Z,4.77
2018-04-13T12:53:08.822Z,4.30
2018-04-13T12:54:12.207Z,5.00
2018-04-13T12:55:15.580Z,5.50
2018-04-13T12:56:18.829Z,5.77
2018-04-13T12:57:22.196Z,6.33
2018-04-13T12:58:25.523Z,5.60
2018-04-13T12:59:28.903Z,5.97
2018-04-13T13:00:32.176Z,5.30
2018-04-13T13:01:35.519Z,4.73
2018-04-13T13:02:38.885Z,4.27
2018-04-13T13:03:42.187Z,4.60
2018-04-13T13:04:45.509Z,5.00
2018-04-13T13:05:49.582Z,5.47
2018-04-13T13:06:52.889Z,4.43
2018-04-13T13:07:56.208Z,5.33
2018-04-13T13:08:59.508Z,5.10
2018-04-13T13:10:02.941Z,5.57
2018-04-13T13:11:07.017Z,5.20
2018-04-13T13:12:10.335Z,5.20
2018-04-13T13:13:13.636Z,4.80
2018-04-13T13:14:16.958Z,4.90
2018-04-13T13:15:20.397Z,5.67
2018-04-13T13:16:25.220Z,5.50
2018-04-13T13:17:37.302Z,4.50
2018-04-13T13:18:41.030Z,4.03
2018-04-13T13:19:44.375Z,3.67
2018-04-13T13:20:48.513Z,3.50
2018-04-13T13:21:51.865Z,3.30
2018-04-13T13:22:55.977Z,4.13
2018-04-13T13:23:59.306Z,3.73
2018-04-13T13:25:02.615Z,3.77
2018-04-13T13:26:05.948Z,3.20
2018-04-13T13:27:09.304Z,3.30
2018-04-13T13:28:13.411Z,3.87
2018-04-13T13:29:16.726Z,2.97
2018-04-13T13:30:20.045Z,3.87
2018-04-13T13:31:23.392Z,3.70
2018-04-13T13:32:26.713Z,3.40
2018-04-13T13:33:30.035Z,3.53
2018-04-13T13:34:33.506Z,3.30
2018-04-13T13:35:36.883Z,3.70
2018-04-13T13:36:40.221Z,2.97
2018-04-13T13:37:43.557Z,3.17
2018-04-13T13:38:46.925Z,2.70
2018-04-13T13:39:50.263Z,3.40
2018-04-13T13:40:53.716Z,2.60
2018-04-13T13:41:57.147Z,3.10
2018-04-13T13:43:00.521Z,3.10
2018-04-13T13:44:03.908Z,3.33
2018-04-13T13:45:07.278Z,4.40
2018-04-13T13:46:10.673Z,3.10
2018-04-13T13:47:14.823Z,3.27
2018-04-13T13:48:18.256Z,3.60
2018-04-13T13:49:22.358Z,3.40
2018-04-13T13:50:25.716Z,3.80
2018-04-13T13:51:29.777Z,3.47
2018-04-13T13:52:34.098Z,4.30
2018-04-13T13:53:37.454Z,4.60
2018-04-13T13:54:40.760Z,3.80